sensor_id;sensor_type;location;lat;lon;timestamp;pressure;altitude;pressure_sealevel;temperature;humidity
46722;BME280;32455;43.430;23.136;2024-01-10T00:01:10;99746.19;;;-5.07;100.00
46722;BME280;32455;43.430;23.136;2024-01-10T00:03:55;99739.19;;;-5.07;100.00
46722;BME280;32455;43.430;23.136;2024-01-10T00:06:40;99736.72;;;-4.94;100.00
46722;BME280;32455;43.430;23.136;2024-01-10T00:09:27;99741.63;;;-4.88;100.00
46722;BME280;32455;43.430;23.136;2024-01-10T00:12:12;99743.59;;;-4.91;100.00
46722;BME280;32455;43.430;23.136;2024-01-10T00:14:57;99747.47;;;-4.83;100.00
46722;BME280;32455;43.430;23.136;2024-01-10T00:17:43;99739.91;;;-4.89;100.00
46722;BME280;32455;43.430;23.136;2024-01-10T00:20:28;99743.06;;;-4.98;100.00
46722;BME280;32455;43.430;23.136;2024-01-10T00:23:13;99738.84;;;-5.00;100.00
46722;BME280;32455;43.430;23.136;2024-01-10T00:25:59;99740.88;;;-5.06;100.00
46722;BME280;32455;43.430;23.136;2024-01-10T00:28:44;99740.88;;;-5.06;100.00
46722;BME280;32455;43.430;23.136;2024-01-10T00:31:31;99746.47;;;-4.96;100.00
46722;BME280;32455;43.430;23.136;2024-01-10T00:34:16;99749.91;;;-5.27;100.00
46722;BME280;32455;43.430;23.136;2024-01-10T00:37:01;99744.19;;;-5.18;100.00
46722;BME280;32455;43.430;23.136;2024-01-10T00:39:47;99745.28;;;-5.22;100.00
46722;BME280;32455;43.430;23.136;2024-01-10T00:42:32;99744.94;;;-5.16;100.00
46722;BME280;32455;43.430;23.136;2024-01-10T00:45:18;99752.22;;;-5.05;100.00
46722;BME280;32455;43.430;23.136;2024-01-10T00:48:03;99754.75;;;-5.04;100.00
46722;BME280;32455;43.430;23.136;2024-01-10T00:50:49;99748.72;;;-5.06;100.00
46722;BME280;32455;43.430;23.136;2024-01-10T00:53:34;99749.59;;;-5.05;100.00
46722;BME280;32455;43.430;23.136;2024-01-10T00:56:20;99756.00;;;-5.42;100.00
46722;BME280;32455;43.430;23.136;2024-01-10T00:59:06;99752.22;;;-5.21;100.00
46722;BME280;32455;43.430;23.136;2024-01-10T01:01:51;99747.47;;;-5.30;100.00
46722;BME280;32455;43.430;23.136;2024-01-10T01:04:36;99759.50;;;-5.26;100.00
46722;BME280;32455;43.430;23.136;2024-01-10T01:07:22;99753.72;;;-5.33;100.00
46722;BME280;32455;43.430;23.136;2024-01-10T01:10:07;99749.16;;;-5.45;100.00
46722;BME280;32455;43.430;23.136;2024-01-10T01:12:53;99751.03;;;-5.47;100.00
46722;BME280;32455;43.430;23.136;2024-01-10T01:15:39;99749.34;;;-5.48;100.00
46722;BME280;32455;43.430;23.136;2024-01-10T01:18:24;99744.56;;;-5.57;100.00
46722;BME280;32455;43.430;23.136;2024-01-10T01:21:10;99745.19;;;-5.52;100.00
46722;BME280;32455;43.430;23.136;2024-01-10T01:23:55;99741.38;;;-5.46;100.00
46722;BME280;32455;43.430;23.136;2024-01-10T01:26:41;99735.72;;;-5.55;100.00
46722;BME280;32455;43.430;23.136;2024-01-10T01:29:26;99738.66;;;-5.61;100.00
46722;BME280;32455;43.430;23.136;2024-01-10T01:32:13;99735.19;;;-5.61;100.00
46722;BME280;32455;43.430;23.136;2024-01-10T01:35:01;99739.16;;;-5.54;100.00
46722;BME280;32455;43.430;23.136;2024-01-10T01:37:48;99730.44;;;-5.70;100.00
46722;BME280;32455;43.430;23.136;2024-01-10T01:40:34;99735.28;;;-5.63;100.00
46722;BME280;32455;43.430;23.136;2024-01-10T01:43:20;99738.22;;;-5.53;100.00
46722;BME280;32455;43.430;23.136;2024-01-10T01:46:06;99732.91;;;-5.67;100.00
46722;BME280;32455;43.430;23.136;2024-01-10T01:48:53;99737.59;;;-5.57;100.00
46722;BME280;32455;43.430;23.136;2024-01-10T01:51:39;99729.78;;;-5.58;100.00
46722;BME280;32455;43.430;23.136;2024-01-10T01:54:26;99727.50;;;-5.64;100.00
46722;BME280;32455;43.430;23.136;2024-01-10T01:57:11;99712.94;;;-5.70;100.00
46722;BME280;32455;43.430;23.136;2024-01-10T01:59:57;99716.34;;;-5.68;100.00
46722;BME280;32455;43.430;23.136;2024-01-10T02:02:43;99714.38;;;-5.80;100.00
46722;BME280;32455;43.430;23.136;2024-01-10T02:05:29;99706.09;;;-5.88;100.00
46722;BME280;32455;43.430;23.136;2024-01-10T02:08:15;99709.13;;;-5.96;100.00
46722;BME280;32455;43.430;23.136;2024-01-10T02:11:01;99700.28;;;-5.93;100.00
46722;BME280;32455;43.430;23.136;2024-01-10T02:13:46;99697.31;;;-6.03;100.00
46722;BME280;32455;43.430;23.136;2024-01-10T02:16:32;99700.44;;;-5.96;100.00
46722;BME280;32455;43.430;23.136;2024-01-10T02:19:21;99699.50;;;-5.95;100.00
46722;BME280;32455;43.430;23.136;2024-01-10T02:22:07;99700.97;;;-5.58;100.00
46722;BME280;32455;43.430;23.136;2024-01-10T02:24:53;99706.84;;;-5.21;100.00
46722;BME280;32455;43.430;23.136;2024-01-10T02:27:40;99710.44;;;-5.24;100.00
46722;BME280;32455;43.430;23.136;2024-01-10T02:30:26;99698.63;;;-5.63;100.00
46722;BME280;32455;43.430;23.136;2024-01-10T02:33:11;99690.91;;;-5.97;100.00
46722;BME280;32455;43.430;23.136;2024-01-10T02:35:56;99692.56;;;-6.12;100.00
46722;BME280;32455;43.430;23.136;2024-01-10T02:38:41;99683.25;;;-6.18;100.00
46722;BME280;32455;43.430;23.136;2024-01-10T02:41:26;99689.81;;;-6.26;100.00
46722;BME280;32455;43.430;23.136;2024-01-10T02:44:13;99692.91;;;-6.53;100.00
46722;BME280;32455;43.430;23.136;2024-01-10T02:46:59;99692.59;;;-6.64;100.00
46722;BME280;32455;43.430;23.136;2024-01-10T02:49:44;99695.91;;;-6.78;100.00
46722;BME280;32455;43.430;23.136;2024-01-10T02:52:29;99693.00;;;-6.89;100.00
46722;BME280;32455;43.430;23.136;2024-01-10T02:55:15;99689.72;;;-7.12;100.00
46722;BME280;32455;43.430;23.136;2024-01-10T02:58:00;99685.94;;;-7.23;100.00
46722;BME280;32455;43.430;23.136;2024-01-10T03:00:45;99687.19;;;-7.13;100.00
46722;BME280;32455;43.430;23.136;2024-01-10T03:03:31;99677.16;;;-7.40;100.00
46722;BME280;32455;43.430;23.136;2024-01-10T03:06:16;99674.63;;;-7.60;100.00
46722;BME280;32455;43.430;23.136;2024-01-10T03:09:01;99671.53;;;-7.87;100.00
46722;BME280;32455;43.430;23.136;2024-01-10T03:11:47;99671.78;;;-7.93;100.00
46722;BME280;32455;43.430;23.136;2024-01-10T03:14:33;99674.56;;;-7.96;100.00
46722;BME280;32455;43.430;23.136;2024-01-10T03:17:19;99668.22;;;-7.91;100.00
46722;BME280;32455;43.430;23.136;2024-01-10T03:20:05;99672.28;;;-7.85;100.00
46722;BME280;32455;43.430;23.136;2024-01-10T03:22:50;99676.81;;;-7.70;100.00
46722;BME280;32455;43.430;23.136;2024-01-10T03:25:36;99667.44;;;-7.74;100.00
46722;BME280;32455;43.430;23.136;2024-01-10T03:28:20;99659.88;;;-7.99;100.00
46722;BME280;32455;43.430;23.136;2024-01-10T03:31:06;99663.63;;;-8.04;100.00
46722;BME280;32455;43.430;23.136;2024-01-10T03:33:51;99659.44;;;-8.46;100.00
46722;BME280;32455;43.430;23.136;2024-01-10T03:36:36;99652.81;;;-8.35;100.00
46722;BME280;32455;43.430;23.136;2024-01-10T03:39:22;99648.78;;;-8.42;100.00
46722;BME280;32455;43.430;23.136;2024-01-10T03:42:07;99648.44;;;-8.34;100.00
46722;BME280;32455;43.430;23.136;2024-01-10T03:44:53;99655.34;;;-8.33;100.00
46722;BME280;32455;43.430;23.136;2024-01-10T03:47:38;99651.25;;;-8.20;100.00
46722;BME280;32455;43.430;23.136;2024-01-10T03:50:24;99660.16;;;-8.43;100.00
46722;BME280;32455;43.430;23.136;2024-01-10T03:53:09;99659.63;;;-8.51;100.00
46722;BME280;32455;43.430;23.136;2024-01-10T03:55:54;99662.22;;;-8.51;100.00
46722;BME280;32455;43.430;23.136;2024-01-10T03:58:40;99662.44;;;-8.55;100.00
46722;BME280;32455;43.430;23.136;2024-01-10T04:01:25;99668.22;;;-8.69;100.00
46722;BME280;32455;43.430;23.136;2024-01-10T04:04:11;99675.19;;;-9.12;100.00
46722;BME280;32455;43.430;23.136;2024-01-10T04:06:56;99669.59;;;-9.45;100.00
46722;BME280;32455;43.430;23.136;2024-01-10T04:09:41;99670.81;;;-9.54;100.00
46722;BME280;32455;43.430;23.136;2024-01-10T04:12:27;99673.50;;;-9.13;100.00
46722;BME280;32455;43.430;23.136;2024-01-10T04:15:12;99670.88;;;-8.91;100.00
46722;BME280;32455;43.430;23.136;2024-01-10T04:17:58;99669.94;;;-9.11;100.00
46722;BME280;32455;43.430;23.136;2024-01-10T04:20:43;99677.34;;;-8.79;100.00
46722;BME280;32455;43.430;23.136;2024-01-10T04:23:28;99681.13;;;-8.66;100.00
46722;BME280;32455;43.430;23.136;2024-01-10T04:26:15;99678.00;;;-8.95;100.00
46722;BME280;32455;43.430;23.136;2024-01-10T04:29:01;99673.88;;;-8.80;100.00
46722;BME280;32455;43.430;23.136;2024-01-10T04:31:47;99672.00;;;-8.76;100.00
46722;BME280;32455;43.430;23.136;2024-01-10T04:34:32;99676.63;;;-9.03;100.00
46722;BME280;32455;43.430;23.136;2024-01-10T04:37:17;99672.50;;;-9.31;100.00
46722;BME280;32455;43.430;23.136;2024-01-10T04:40:03;99682.16;;;-9.33;100.00
46722;BME280;32455;43.430;23.136;2024-01-10T04:42:48;99673.97;;;-9.46;100.00
46722;BME280;32455;43.430;23.136;2024-01-10T04:45:34;99670.25;;;-9.62;100.00
46722;BME280;32455;43.430;23.136;2024-01-10T04:48:19;99669.72;;;-9.26;100.00
46722;BME280;32455;43.430;23.136;2024-01-10T04:51:04;99670.19;;;-9.17;100.00
46722;BME280;32455;43.430;23.136;2024-01-10T04:53:49;99666.38;;;-9.30;100.00
46722;BME280;32455;43.430;23.136;2024-01-10T04:56:35;99672.84;;;-9.18;100.00
46722;BME280;32455;43.430;23.136;2024-01-10T04:59:23;99668.13;;;-9.09;100.00
46722;BME280;32455;43.430;23.136;2024-01-10T05:02:09;99672.44;;;-9.07;100.00
46722;BME280;32455;43.430;23.136;2024-01-10T05:04:55;99668.94;;;-8.86;100.00
46722;BME280;32455;43.430;23.136;2024-01-10T05:07:41;99670.22;;;-8.96;100.00
46722;BME280;32455;43.430;23.136;2024-01-10T05:10:26;99674.66;;;-8.98;100.00
46722;BME280;32455;43.430;23.136;2024-01-10T05:13:12;99667.81;;;-9.01;100.00
46722;BME280;32455;43.430;23.136;2024-01-10T05:15:58;99673.63;;;-8.74;100.00
46722;BME280;32455;43.430;23.136;2024-01-10T05:18:43;99671.91;;;-9.16;100.00
46722;BME280;32455;43.430;23.136;2024-01-10T05:21:30;99658.56;;;-8.88;100.00
46722;BME280;32455;43.430;23.136;2024-01-10T05:24:16;99661.06;;;-8.64;100.00
46722;BME280;32455;43.430;23.136;2024-01-10T05:27:03;99648.09;;;-8.45;100.00
46722;BME280;32455;43.430;23.136;2024-01-10T05:29:49;99654.53;;;-8.35;100.00
46722;BME280;32455;43.430;23.136;2024-01-10T05:32:34;99656.69;;;-8.24;100.00
46722;BME280;32455;43.430;23.136;2024-01-10T05:35:20;99653.94;;;-8.21;100.00
46722;BME280;32455;43.430;23.136;2024-01-10T05:38:05;99657.19;;;-8.16;100.00
46722;BME280;32455;43.430;23.136;2024-01-10T05:40:50;99649.66;;;-8.03;100.00
46722;BME280;32455;43.430;23.136;2024-01-10T05:43:36;99649.31;;;-7.96;100.00
46722;BME280;32455;43.430;23.136;2024-01-10T05:46:21;99654.59;;;-7.97;100.00
46722;BME280;32455;43.430;23.136;2024-01-10T05:49:06;99656.72;;;-7.87;100.00
46722;BME280;32455;43.430;23.136;2024-01-10T05:51:52;99654.47;;;-7.94;100.00
46722;BME280;32455;43.430;23.136;2024-01-10T05:54:38;99655.03;;;-7.88;100.00
46722;BME280;32455;43.430;23.136;2024-01-10T05:57:24;99668.84;;;-7.67;100.00
46722;BME280;32455;43.430;23.136;2024-01-10T06:00:10;99670.34;;;-7.61;100.00
46722;BME280;32455;43.430;23.136;2024-01-10T06:02:56;99666.59;;;-7.74;100.00
46722;BME280;32455;43.430;23.136;2024-01-10T06:05:41;99659.41;;;-7.69;100.00
46722;BME280;32455;43.430;23.136;2024-01-10T06:08:26;99663.78;;;-7.70;100.00
46722;BME280;32455;43.430;23.136;2024-01-10T06:11:13;99671.03;;;-7.95;100.00
46722;BME280;32455;43.430;23.136;2024-01-10T06:13:58;99669.59;;;-8.02;100.00
46722;BME280;32455;43.430;23.136;2024-01-10T06:16:44;99674.22;;;-7.70;100.00
46722;BME280;32455;43.430;23.136;2024-01-10T06:19:30;99669.53;;;-8.01;100.00
46722;BME280;32455;43.430;23.136;2024-01-10T06:22:18;99676.50;;;-8.20;100.00
46722;BME280;32455;43.430;23.136;2024-01-10T06:25:09;99672.97;;;-8.19;100.00
46722;BME280;32455;43.430;23.136;2024-01-10T06:27:55;99675.84;;;-8.25;100.00
46722;BME280;32455;43.430;23.136;2024-01-10T06:30:41;99675.03;;;-8.07;100.00
46722;BME280;32455;43.430;23.136;2024-01-10T06:33:26;99675.81;;;-7.86;100.00
46722;BME280;32455;43.430;23.136;2024-01-10T06:36:11;99687.09;;;-7.86;100.00
46722;BME280;32455;43.430;23.136;2024-01-10T06:38:57;99693.88;;;-7.82;100.00
46722;BME280;32455;43.430;23.136;2024-01-10T06:41:42;99702.63;;;-7.83;100.00
46722;BME280;32455;43.430;23.136;2024-01-10T06:44:27;99706.28;;;-7.87;100.00
46722;BME280;32455;43.430;23.136;2024-01-10T06:47:13;99708.09;;;-7.89;100.00
46722;BME280;32455;43.430;23.136;2024-01-10T06:49:59;99709.81;;;-7.88;100.00
46722;BME280;32455;43.430;23.136;2024-01-10T06:52:45;99708.34;;;-8.14;100.00
46722;BME280;32455;43.430;23.136;2024-01-10T06:55:30;99714.72;;;-8.40;100.00
46722;BME280;32455;43.430;23.136;2024-01-10T06:58:15;99709.38;;;-8.37;100.00
46722;BME280;32455;43.430;23.136;2024-01-10T07:01:01;99709.00;;;-8.48;100.00
46722;BME280;32455;43.430;23.136;2024-01-10T07:03:46;99714.50;;;-8.35;100.00
46722;BME280;32455;43.430;23.136;2024-01-10T07:06:31;99712.19;;;-8.41;100.00
46722;BME280;32455;43.430;23.136;2024-01-10T07:09:17;99718.75;;;-8.33;100.00
46722;BME280;32455;43.430;23.136;2024-01-10T07:12:04;99724.91;;;-8.54;100.00
46722;BME280;32455;43.430;23.136;2024-01-10T07:14:51;99724.44;;;-8.64;100.00
46722;BME280;32455;43.430;23.136;2024-01-10T07:17:38;99717.88;;;-8.52;100.00
46722;BME280;32455;43.430;23.136;2024-01-10T07:20:23;99717.16;;;-8.55;100.00
46722;BME280;32455;43.430;23.136;2024-01-10T07:23:09;99722.16;;;-8.51;100.00
46722;BME280;32455;43.430;23.136;2024-01-10T07:25:55;99710.91;;;-8.51;100.00
46722;BME280;32455;43.430;23.136;2024-01-10T07:28:41;99712.00;;;-8.57;100.00
46722;BME280;32455;43.430;23.136;2024-01-10T07:31:27;99714.81;;;-8.41;100.00
46722;BME280;32455;43.430;23.136;2024-01-10T07:34:13;99716.56;;;-8.42;100.00
46722;BME280;32455;43.430;23.136;2024-01-10T07:36:59;99713.97;;;-8.42;100.00
46722;BME280;32455;43.430;23.136;2024-01-10T07:39:45;99707.78;;;-8.39;100.00
46722;BME280;32455;43.430;23.136;2024-01-10T07:42:30;99711.28;;;-8.40;100.00
46722;BME280;32455;43.430;23.136;2024-01-10T07:45:16;99708.00;;;-8.06;100.00
46722;BME280;32455;43.430;23.136;2024-01-10T07:48:01;99696.66;;;-7.66;100.00
46722;BME280;32455;43.430;23.136;2024-01-10T07:50:46;99706.34;;;-7.32;100.00
46722;BME280;32455;43.430;23.136;2024-01-10T07:53:31;99713.88;;;-7.25;100.00
46722;BME280;32455;43.430;23.136;2024-01-10T07:56:16;99717.69;;;-7.33;100.00
46722;BME280;32455;43.430;23.136;2024-01-10T07:59:01;99717.72;;;-6.96;100.00
46722;BME280;32455;43.430;23.136;2024-01-10T08:01:55;99726.31;;;-6.94;100.00
46722;BME280;32455;43.430;23.136;2024-01-10T08:04:43;99730.50;;;-6.73;100.00
46722;BME280;32455;43.430;23.136;2024-01-10T08:07:29;99728.75;;;-6.38;100.00
46722;BME280;32455;43.430;23.136;2024-01-10T08:10:14;99724.09;;;-5.98;100.00
46722;BME280;32455;43.430;23.136;2024-01-10T08:13:00;99736.25;;;-5.97;100.00
46722;BME280;32455;43.430;23.136;2024-01-10T08:15:45;99730.69;;;-5.75;100.00
46722;BME280;32455;43.430;23.136;2024-01-10T08:18:30;99738.72;;;-5.62;100.00
46722;BME280;32455;43.430;23.136;2024-01-10T08:21:15;99743.47;;;-5.69;100.00
46722;BME280;32455;43.430;23.136;2024-01-10T08:24:02;99745.94;;;-5.50;100.00
46722;BME280;32455;43.430;23.136;2024-01-10T08:26:48;99735.22;;;-5.45;100.00
46722;BME280;32455;43.430;23.136;2024-01-10T08:29:39;99739.94;;;-5.36;100.00
46722;BME280;32455;43.430;23.136;2024-01-10T08:32:25;99739.19;;;-5.38;100.00
46722;BME280;32455;43.430;23.136;2024-01-10T08:35:10;99740.69;;;-5.18;100.00
46722;BME280;32455;43.430;23.136;2024-01-10T08:37:56;99746.38;;;-5.10;100.00
46722;BME280;32455;43.430;23.136;2024-01-10T08:40:41;99745.53;;;-4.95;100.00
46722;BME280;32455;43.430;23.136;2024-01-10T08:43:26;99750.78;;;-4.95;100.00
46722;BME280;32455;43.430;23.136;2024-01-10T08:46:12;99742.22;;;-4.83;100.00
46722;BME280;32455;43.430;23.136;2024-01-10T08:48:57;99734.06;;;-4.62;100.00
46722;BME280;32455;43.430;23.136;2024-01-10T08:51:42;99735.25;;;-4.68;100.00
46722;BME280;32455;43.430;23.136;2024-01-10T08:54:29;99736.88;;;-4.81;100.00
46722;BME280;32455;43.430;23.136;2024-01-10T08:57:14;99735.31;;;-4.54;100.00
46722;BME280;32455;43.430;23.136;2024-01-10T08:59:59;99730.91;;;-4.53;100.00
46722;BME280;32455;43.430;23.136;2024-01-10T09:02:44;99733.16;;;-4.47;100.00
46722;BME280;32455;43.430;23.136;2024-01-10T09:05:29;99730.50;;;-4.61;100.00
46722;BME280;32455;43.430;23.136;2024-01-10T09:08:14;99722.63;;;-4.31;100.00
46722;BME280;32455;43.430;23.136;2024-01-10T09:11:00;99711.13;;;-4.14;100.00
46722;BME280;32455;43.430;23.136;2024-01-10T09:13:46;99714.38;;;-4.25;100.00
46722;BME280;32455;43.430;23.136;2024-01-10T09:16:31;99711.41;;;-4.05;100.00
46722;BME280;32455;43.430;23.136;2024-01-10T09:19:17;99710.28;;;-4.00;100.00
46722;BME280;32455;43.430;23.136;2024-01-10T09:22:02;99705.31;;;-3.91;100.00
46722;BME280;32455;43.430;23.136;2024-01-10T09:24:47;99702.97;;;-3.95;100.00
46722;BME280;32455;43.430;23.136;2024-01-10T09:27:36;99704.66;;;-4.09;100.00
46722;BME280;32455;43.430;23.136;2024-01-10T09:30:21;99701.00;;;-3.78;100.00
46722;BME280;32455;43.430;23.136;2024-01-10T09:33:08;99700.72;;;-3.87;100.00
46722;BME280;32455;43.430;23.136;2024-01-10T09:35:54;99705.97;;;-3.87;100.00
46722;BME280;32455;43.430;23.136;2024-01-10T09:38:40;99696.41;;;-3.74;100.00
46722;BME280;32455;43.430;23.136;2024-01-10T09:41:27;99695.75;;;-3.78;100.00
46722;BME280;32455;43.430;23.136;2024-01-10T09:44:16;99684.88;;;-4.00;100.00
46722;BME280;32455;43.430;23.136;2024-01-10T09:47:02;99685.06;;;-4.17;100.00
46722;BME280;32455;43.430;23.136;2024-01-10T09:49:47;99679.91;;;-4.05;100.00
46722;BME280;32455;43.430;23.136;2024-01-10T09:52:41;99676.53;;;-3.92;100.00
46722;BME280;32455;43.430;23.136;2024-01-10T09:55:30;99676.53;;;-3.78;100.00
46722;BME280;32455;43.430;23.136;2024-01-10T09:58:19;99671.34;;;-3.65;100.00
46722;BME280;32455;43.430;23.136;2024-01-10T10:01:04;99673.03;;;-3.64;100.00
46722;BME280;32455;43.430;23.136;2024-01-10T10:03:50;99662.09;;;-3.99;100.00
46722;BME280;32455;43.430;23.136;2024-01-10T10:06:35;99656.41;;;-3.50;100.00
46722;BME280;32455;43.430;23.136;2024-01-10T10:09:21;99662.94;;;-4.13;100.00
46722;BME280;32455;43.430;23.136;2024-01-10T10:12:06;99654.41;;;-4.17;100.00
46722;BME280;32455;43.430;23.136;2024-01-10T10:14:52;99662.19;;;-4.01;100.00
46722;BME280;32455;43.430;23.136;2024-01-10T10:17:39;99653.94;;;-3.95;100.00
46722;BME280;32455;43.430;23.136;2024-01-10T10:20:31;99653.63;;;-3.62;100.00
46722;BME280;32455;43.430;23.136;2024-01-10T10:23:22;99652.31;;;-3.55;100.00
46722;BME280;32455;43.430;23.136;2024-01-10T10:26:11;99642.69;;;-3.41;100.00
46722;BME280;32455;43.430;23.136;2024-01-10T10:28:58;99640.41;;;-3.33;100.00
46722;BME280;32455;43.430;23.136;2024-01-10T10:31:47;99632.03;;;-3.25;100.00
46722;BME280;32455;43.430;23.136;2024-01-10T10:34:32;99632.13;;;-3.27;100.00
46722;BME280;32455;43.430;23.136;2024-01-10T10:37:18;99636.06;;;-3.61;100.00
46722;BME280;32455;43.430;23.136;2024-01-10T10:40:03;99636.69;;;-3.43;100.00
46722;BME280;32455;43.430;23.136;2024-01-10T10:42:55;99627.72;;;-3.54;100.00
46722;BME280;32455;43.430;23.136;2024-01-10T10:45:47;99630.88;;;-3.21;100.00
46722;BME280;32455;43.430;23.136;2024-01-10T10:48:34;99628.75;;;-3.02;100.00
46722;BME280;32455;43.430;23.136;2024-01-10T10:51:31;99630.75;;;-3.33;100.00
46722;BME280;32455;43.430;23.136;2024-01-10T10:54:19;99623.50;;;-3.29;100.00
46722;BME280;32455;43.430;23.136;2024-01-10T10:57:04;99627.16;;;-3.32;100.00
46722;BME280;32455;43.430;23.136;2024-01-10T10:59:52;99624.25;;;-3.27;100.00
46722;BME280;32455;43.430;23.136;2024-01-10T11:02:38;99630.50;;;-3.42;100.00
46722;BME280;32455;43.430;23.136;2024-01-10T11:05:25;99627.97;;;-3.44;100.00
46722;BME280;32455;43.430;23.136;2024-01-10T11:08:14;99620.13;;;-3.31;100.00
46722;BME280;32455;43.430;23.136;2024-01-10T11:11:07;99623.16;;;-3.37;100.00
46722;BME280;32455;43.430;23.136;2024-01-10T11:14:40;99622.06;;;-3.47;100.00
46722;BME280;32455;43.430;23.136;2024-01-10T11:20:24;99601.59;;;-3.42;100.00
46722;BME280;32455;43.430;23.136;2024-01-10T11:24:05;99609.88;;;-4.04;100.00
46722;BME280;32455;43.430;23.136;2024-01-10T11:26:46;99602.47;;;-4.26;100.00
46722;BME280;32455;43.430;23.136;2024-01-10T11:29:31;99601.41;;;-3.95;100.00
46722;BME280;32455;43.430;23.136;2024-01-10T11:32:22;99606.22;;;-4.01;100.00
46722;BME280;32455;43.430;23.136;2024-01-10T11:35:19;99599.63;;;-3.80;100.00
46722;BME280;32455;43.430;23.136;2024-01-10T11:38:05;99602.38;;;-3.96;100.00
46722;BME280;32455;43.430;23.136;2024-01-10T11:40:52;99598.19;;;-3.71;100.00
46722;BME280;32455;43.430;23.136;2024-01-10T11:43:39;99598.41;;;-4.03;100.00
46722;BME280;32455;43.430;23.136;2024-01-10T11:46:26;99594.81;;;-3.73;100.00
46722;BME280;32455;43.430;23.136;2024-01-10T11:49:18;99588.44;;;-4.11;100.00
46722;BME280;32455;43.430;23.136;2024-01-10T11:52:03;99595.47;;;-3.70;100.00
46722;BME280;32455;43.430;23.136;2024-01-10T11:54:49;99584.84;;;-3.68;100.00
46722;BME280;32455;43.430;23.136;2024-01-10T11:57:36;99587.50;;;-3.41;100.00
46722;BME280;32455;43.430;23.136;2024-01-10T12:00:22;99588.44;;;-3.69;100.00
46722;BME280;32455;43.430;23.136;2024-01-10T12:03:08;99583.22;;;-3.57;100.00
46722;BME280;32455;43.430;23.136;2024-01-10T12:05:54;99574.56;;;-3.86;100.00
46722;BME280;32455;43.430;23.136;2024-01-10T12:08:40;99579.91;;;-3.73;100.00
46722;BME280;32455;43.430;23.136;2024-01-10T12:11:26;99572.06;;;-3.60;100.00
46722;BME280;32455;43.430;23.136;2024-01-10T12:14:12;99569.66;;;-3.63;100.00
46722;BME280;32455;43.430;23.136;2024-01-10T12:16:58;99568.47;;;-3.86;100.00
46722;BME280;32455;43.430;23.136;2024-01-10T12:19:44;99567.13;;;-4.06;100.00
46722;BME280;32455;43.430;23.136;2024-01-10T12:22:31;99567.28;;;-3.54;100.00
46722;BME280;32455;43.430;23.136;2024-01-10T12:25:17;99565.09;;;-3.47;100.00
46722;BME280;32455;43.430;23.136;2024-01-10T12:28:04;99570.06;;;-3.42;100.00
46722;BME280;32455;43.430;23.136;2024-01-10T12:30:49;99563.56;;;-3.64;100.00
46722;BME280;32455;43.430;23.136;2024-01-10T12:33:37;99560.84;;;-3.62;100.00
46722;BME280;32455;43.430;23.136;2024-01-10T12:36:24;99560.16;;;-3.39;100.00
46722;BME280;32455;43.430;23.136;2024-01-10T12:39:11;99571.09;;;-3.72;100.00
46722;BME280;32455;43.430;23.136;2024-01-10T12:41:57;99566.53;;;-3.29;100.00
46722;BME280;32455;43.430;23.136;2024-01-10T12:44:44;99571.28;;;-3.48;100.00
46722;BME280;32455;43.430;23.136;2024-01-10T12:47:29;99572.88;;;-4.28;100.00
46722;BME280;32455;43.430;23.136;2024-01-10T12:50:15;99571.91;;;-4.13;100.00
46722;BME280;32455;43.430;23.136;2024-01-10T12:53:00;99568.41;;;-3.85;100.00
46722;BME280;32455;43.430;23.136;2024-01-10T12:55:46;99577.44;;;-3.62;100.00
46722;BME280;32455;43.430;23.136;2024-01-10T12:58:33;99576.84;;;-3.53;100.00
46722;BME280;32455;43.430;23.136;2024-01-10T13:01:19;99578.88;;;-3.70;100.00
46722;BME280;32455;43.430;23.136;2024-01-10T13:04:05;99569.59;;;-3.49;100.00
46722;BME280;32455;43.430;23.136;2024-01-10T13:06:51;99575.75;;;-3.36;100.00
46722;BME280;32455;43.430;23.136;2024-01-10T13:09:36;99578.34;;;-3.90;100.00
46722;BME280;32455;43.430;23.136;2024-01-10T13:12:22;99575.34;;;-3.84;100.00
46722;BME280;32455;43.430;23.136;2024-01-10T13:15:07;99578.91;;;-3.31;100.00
46722;BME280;32455;43.430;23.136;2024-01-10T13:17:54;99578.22;;;-3.47;100.00
46722;BME280;32455;43.430;23.136;2024-01-10T13:20:40;99582.25;;;-3.41;100.00
46722;BME280;32455;43.430;23.136;2024-01-10T13:23:25;99584.47;;;-3.35;100.00
46722;BME280;32455;43.430;23.136;2024-01-10T13:26:12;99576.28;;;-3.31;100.00
46722;BME280;32455;43.430;23.136;2024-01-10T13:28:58;99583.97;;;-3.28;100.00
46722;BME280;32455;43.430;23.136;2024-01-10T13:31:43;99584.63;;;-3.24;100.00
46722;BME280;32455;43.430;23.136;2024-01-10T13:34:29;99586.69;;;-3.56;100.00
46722;BME280;32455;43.430;23.136;2024-01-10T13:37:15;99588.97;;;-3.64;100.00
46722;BME280;32455;43.430;23.136;2024-01-10T13:40:02;99594.63;;;-3.43;100.00
46722;BME280;32455;43.430;23.136;2024-01-10T13:42:50;99592.53;;;-3.51;100.00
46722;BME280;32455;43.430;23.136;2024-01-10T13:45:36;99589.03;;;-3.52;100.00
46722;BME280;32455;43.430;23.136;2024-01-10T13:48:21;99587.03;;;-3.75;100.00
46722;BME280;32455;43.430;23.136;2024-01-10T13:51:06;99582.66;;;-3.89;100.00
46722;BME280;32455;43.430;23.136;2024-01-10T13:53:53;99584.22;;;-3.45;100.00
46722;BME280;32455;43.430;23.136;2024-01-10T13:56:38;99592.72;;;-3.68;100.00
46722;BME280;32455;43.430;23.136;2024-01-10T13:59:25;99590.94;;;-4.09;100.00
46722;BME280;32455;43.430;23.136;2024-01-10T14:02:11;99583.44;;;-4.01;100.00
46722;BME280;32455;43.430;23.136;2024-01-10T14:04:57;99583.34;;;-3.58;100.00
46722;BME280;32455;43.430;23.136;2024-01-10T14:07:42;99584.91;;;-3.83;100.00
46722;BME280;32455;43.430;23.136;2024-01-10T14:10:31;99585.91;;;-4.41;100.00
46722;BME280;32455;43.430;23.136;2024-01-10T14:13:17;99588.28;;;-3.95;100.00
46722;BME280;32455;43.430;23.136;2024-01-10T14:16:02;99585.22;;;-4.16;100.00
46722;BME280;32455;43.430;23.136;2024-01-10T14:18:47;99588.88;;;-4.04;100.00
46722;BME280;32455;43.430;23.136;2024-01-10T14:21:33;99582.78;;;-4.05;100.00